createdAt,value
2018-10-16T00:00:09.126Z,7.00
2018-10-16T00:02:37.608Z,6.90
2018-10-16T00:05:06.310Z,6.90
2018-10-16T00:07:34.786Z,6.90
2018-10-16T00:10:03.344Z,6.90
2018-10-16T00:12:31.850Z,6.80
2018-10-16T00:15:01.963Z,6.80
2018-10-16T00:17:30.378Z,6.80
2018-10-16T00:19:58.916Z,6.80
2018-10-16T00:22:27.408Z,6.80
2018-10-16T00:24:55.931Z,6.80
2018-10-16T00:27:24.386Z,6.80
2018-10-16T00:29:52.880Z,6.70
2018-10-16T00:32:21.362Z,6.80
2018-10-16T00:34:49.830Z,6.70
2018-10-16T00:37:18.297Z,6.70
2018-10-16T00:39:46.780Z,6.70
2018-10-16T00:42:15.318Z,6.70
2018-10-16T00:44:43.741Z,6.70
2018-10-16T00:47:12.195Z,6.70
2018-10-16T00:49:40.675Z,6.70
2018-10-16T00:52:09.129Z,6.60
2018-10-16T00:54:37.636Z,6.60
2018-10-16T00:57:06.194Z,6.50
2018-10-16T00:59:34.677Z,6.40
2018-10-16T01:02:03.143Z,6.40
2018-10-16T01:04:31.602Z,6.40
2018-10-16T01:07:00.099Z,6.40
2018-10-16T01:09:28.612Z,6.40
2018-10-16T01:11:57.066Z,6.30
2018-10-16T01:14:25.573Z,6.20
2018-10-16T01:16:54.045Z,6.10
2018-10-16T01:19:22.809Z,6.00
2018-10-16T01:21:51.317Z,6.00
2018-10-16T01:24:19.901Z,5.90
2018-10-16T01:26:48.384Z,5.80
2018-10-16T01:29:16.860Z,5.80
2018-10-16T01:31:45.317Z,5.90
2018-10-16T01:34:13.868Z,6.00
2018-10-16T01:36:42.335Z,6.10
2018-10-16T01:39:10.861Z,6.10
2018-10-16T01:41:39.316Z,6.00
2018-10-16T01:44:07.776Z,5.90
2018-10-16T01:46:36.263Z,5.80
2018-10-16T01:49:05.155Z,5.90
2018-10-16T01:51:33.615Z,5.90
2018-10-16T01:54:02.051Z,6.00
2018-10-16T01:56:30.531Z,5.90
2018-10-16T01:58:59.027Z,5.90
2018-10-16T02:01:27.521Z,5.90
2018-10-16T02:03:56.005Z,6.00
2018-10-16T02:06:24.597Z,6.00
2018-10-16T02:08:53.043Z,5.90
2018-10-16T02:11:21.566Z,5.90
2018-10-16T02:13:50.047Z,5.90
2018-10-16T02:16:18.517Z,5.90
2018-10-16T02:18:46.974Z,5.90
2018-10-16T02:21:15.420Z,5.90
2018-10-16T02:23:43.884Z,5.90
2018-10-16T02:26:12.378Z,5.80
2018-10-16T02:28:40.844Z,5.90
2018-10-16T02:31:09.287Z,5.80
2018-10-16T02:33:37.809Z,5.70
2018-10-16T02:36:06.298Z,5.70
2018-10-16T02:38:35.370Z,5.80
2018-10-16T02:41:03.863Z,5.70
2018-10-16T02:43:32.319Z,5.60
2018-10-16T02:46:00.794Z,5.50
2018-10-16T02:48:29.276Z,5.50
2018-10-16T02:50:57.754Z,5.50
2018-10-16T02:53:26.238Z,5.60
2018-10-16T02:55:54.718Z,5.60
2018-10-16T02:58:23.317Z,5.60
2018-10-16T03:00:51.816Z,5.60
2018-10-16T03:03:20.258Z,5.50
2018-10-16T03:05:48.706Z,5.50
2018-10-16T03:08:17.165Z,5.50
2018-10-16T03:10:45.654Z,5.50
2018-10-16T03:13:14.138Z,5.30
2018-10-16T03:15:42.641Z,5.30
2018-10-16T03:18:11.100Z,5.30
2018-10-16T03:20:39.662Z,5.30
2018-10-16T03:23:08.045Z,5.30
2018-10-16T03:25:36.500Z,5.30
2018-10-16T03:28:05.322Z,5.30
2018-10-16T03:30:40.270Z,5.30
2018-10-16T03:33:08.773Z,5.40
2018-10-16T03:35:37.346Z,5.30
2018-10-16T03:38:05.894Z,5.20
2018-10-16T03:40:34.351Z,5.20
2018-10-16T03:43:02.836Z,5.20
2018-10-16T03:45:31.323Z,5.20
2018-10-16T03:47:59.786Z,5.20
2018-10-16T03:50:28.310Z,5.10
2018-10-16T03:52:56.788Z,5.00
2018-10-16T03:55:25.253Z,5.10
2018-10-16T03:57:53.713Z,5.10
2018-10-16T04:00:22.173Z,5.00
2018-10-16T04:02:50.646Z,5.00
2018-10-16T04:05:19.099Z,4.90
2018-10-16T04:07:47.579Z,5.00
2018-10-16T04:10:16.042Z,5.10
2018-10-16T04:12:44.517Z,5.20
2018-10-16T04:15:12.985Z,5.20
2018-10-16T04:17:41.894Z,5.10
2018-10-16T04:20:10.398Z,5.10
2018-10-16T04:22:39.125Z,5.10
2018-10-16T04:25:08.051Z,5.10
2018-10-16T04:27:36.586Z,5.10
2018-10-16T04:30:05.870Z,5.10
2018-10-16T04:32:34.321Z,5.10
2018-10-16T04:35:02.866Z,5.00
2018-10-16T04:37:31.326Z,4.80
2018-10-16T04:39:59.786Z,4.80
2018-10-16T04:42:28.246Z,4.80
2018-10-16T04:44:56.770Z,4.80
2018-10-16T04:47:25.210Z,5.00
2018-10-16T04:49:53.706Z,5.00
2018-10-16T04:52:22.170Z,5.00
2018-10-16T04:54:50.673Z,5.00
2018-10-16T04:57:19.155Z,5.00
2018-10-16T04:59:47.602Z,5.00
2018-10-16T05:02:16.154Z,4.90
2018-10-16T05:04:44.678Z,4.90
2018-10-16T05:07:13.196Z,4.90
2018-10-16T05:09:41.662Z,4.90
2018-10-16T05:12:10.170Z,4.90
2018-10-16T05:17:10.318Z,4.90
2018-10-16T05:19:38.803Z,5.10
2018-10-16T05:22:07.299Z,5.20
2018-10-16T05:24:35.750Z,5.20
2018-10-16T05:27:04.451Z,5.20
2018-10-16T05:29:33.029Z,5.30
2018-10-16T05:32:01.513Z,6.20
2018-10-16T05:34:29.992Z,6.50
2018-10-16T05:36:58.452Z,6.30
2018-10-16T05:39:26.928Z,6.10
2018-10-16T05:41:55.378Z,5.90
2018-10-16T05:44:23.917Z,5.80
2018-10-16T05:46:52.395Z,5.60
2018-10-16T05:49:20.887Z,5.60
2018-10-16T05:51:49.355Z,5.60
2018-10-16T05:54:18.489Z,5.50
2018-10-16T05:56:47.834Z,5.50
2018-10-16T05:59:16.318Z,5.60
2018-10-16T06:01:44.870Z,5.70
2018-10-16T06:04:13.349Z,5.70
2018-10-16T06:06:41.829Z,5.70
2018-10-16T06:09:10.337Z,5.80
2018-10-16T06:11:38.800Z,5.90
2018-10-16T06:14:07.273Z,5.90
2018-10-16T06:16:35.752Z,6.00
2018-10-16T06:19:04.263Z,6.00
2018-10-16T06:21:32.759Z,6.10
2018-10-16T06:24:01.259Z,6.10
2018-10-16T06:26:29.770Z,6.10
2018-10-16T06:28:58.177Z,6.20
2018-10-16T06:31:26.659Z,6.20
2018-10-16T06:33:55.167Z,6.30
2018-10-16T06:36:23.653Z,6.40
2018-10-16T06:38:52.098Z,6.50
2018-10-16T06:41:20.642Z,6.60
2018-10-16T06:43:49.105Z,6.60
2018-10-16T06:46:17.691Z,6.70
2018-10-16T06:48:46.537Z,6.90
2018-10-16T06:51:14.675Z,7.00
2018-10-16T06:53:43.356Z,7.20
2018-10-16T06:56:11.798Z,7.40
2018-10-16T06:58:40.246Z,7.50
2018-10-16T07:01:08.700Z,7.70
2018-10-16T07:03:37.153Z,7.80
2018-10-16T07:06:05.629Z,8.00
2018-10-16T07:08:34.053Z,8.30
2018-10-16T07:11:02.470Z,8.60
2018-10-16T07:13:30.933Z,8.80
2018-10-16T07:15:59.427Z,9.00
2018-10-16T07:18:27.912Z,9.30
2018-10-16T07:20:56.346Z,9.60
2018-10-16T07:23:24.905Z,9.80
2018-10-16T07:25:53.252Z,10.00
2018-10-16T07:28:21.688Z,10.30
2018-10-16T07:30:50.171Z,10.80
2018-10-16T07:33:18.612Z,11.30
2018-10-16T07:35:47.092Z,12.20
2018-10-16T07:38:15.722Z,13.10
2018-10-16T07:40:44.086Z,14.40
2018-10-16T07:43:12.544Z,15.20
2018-10-16T07:45:40.981Z,16.60
2018-10-16T07:48:09.495Z,18.30
2018-10-16T07:50:37.978Z,19.40
2018-10-16T07:53:06.619Z,20.50
2018-10-16T07:55:35.088Z,21.20
2018-10-16T07:58:03.568Z,22.20
2018-10-16T08:00:32.014Z,22.40
2018-10-16T08:03:00.452Z,22.60
2018-10-16T08:05:28.906Z,22.90
2018-10-16T08:07:57.366Z,22.80
2018-10-16T08:10:25.874Z,22.50
2018-10-16T08:12:54.408Z,22.50
2018-10-16T08:15:22.965Z,23.10
2018-10-16T08:17:51.455Z,23.90
2018-10-16T08:20:19.918Z,24.30
2018-10-16T08:22:48.362Z,25.10
2018-10-16T08:25:16.846Z,25.40
2018-10-16T08:27:45.297Z,25.80
2018-10-16T08:30:13.751Z,26.60
2018-10-16T08:32:42.244Z,26.60
2018-10-16T08:35:10.758Z,26.90
2018-10-16T08:38:05.986Z,26.90
2018-10-16T08:40:34.521Z,26.70
2018-10-16T08:43:28.572Z,27.20
2018-10-16T08:46:08.628Z,27.20
2018-10-16T08:48:48.500Z,27.70
2018-10-16T08:51:29.245Z,28.50
2018-10-16T08:53:57.723Z,28.70
2018-10-16T08:56:26.249Z,29.80
2018-10-16T08:58:54.756Z,30.20
2018-10-16T09:01:23.221Z,30.50
2018-10-16T09:03:51.734Z,30.60
2018-10-16T09:06:20.217Z,30.80
2018-10-16T09:08:48.691Z,30.90
2018-10-16T09:11:17.141Z,30.60
2018-10-16T09:13:45.655Z,31.10
2018-10-16T09:16:14.078Z,30.50
2018-10-16T09:18:42.547Z,30.60
2018-10-16T09:21:11.090Z,30.80
2018-10-16T09:23:39.616Z,31.50
2018-10-16T09:26:08.096Z,31.20
2018-10-16T09:28:36.541Z,31.50
2018-10-16T09:31:05.150Z,32.20
2018-10-16T09:33:33.609Z,31.80
2018-10-16T09:36:02.162Z,32.10
2018-10-16T09:38:30.601Z,32.00
2018-10-16T09:40:59.082Z,32.20
2018-10-16T09:43:27.555Z,32.60
2018-10-16T09:45:56.022Z,32.70
2018-10-16T09:48:24.497Z,32.50
2018-10-16T09:50:52.986Z,32.60
2018-10-16T09:53:21.441Z,32.50
2018-10-16T09:55:49.938Z,32.50
2018-10-16T09:58:18.412Z,32.30
2018-10-16T10:00:52.367Z,32.60
2018-10-16T10:03:20.883Z,33.30
2018-10-16T10:05:49.338Z,33.00
2018-10-16T10:08:17.850Z,33.50
2018-10-16T10:10:46.378Z,32.90
2018-10-16T10:13:14.775Z,32.90
2018-10-16T10:15:43.234Z,33.20
2018-10-16T10:18:11.802Z,33.50
2018-10-16T10:20:40.297Z,33.60
2018-10-16T10:23:08.829Z,33.80
2018-10-16T10:25:37.254Z,33.90
2018-10-16T10:28:05.762Z,34.20
2018-10-16T10:30:34.250Z,33.80
2018-10-16T10:33:02.742Z,33.90
2018-10-16T10:35:31.261Z,33.50
2018-10-16T10:37:59.706Z,33.30
2018-10-16T10:40:28.218Z,33.20
2018-10-16T10:42:56.694Z,33.70
2018-10-16T10:45:25.154Z,34.30
2018-10-16T10:47:53.652Z,34.20
2018-10-16T10:50:22.390Z,33.90
2018-10-16T10:52:50.683Z,34.20
2018-10-16T10:55:19.174Z,34.10
2018-10-16T10:57:47.950Z,34.60
2018-10-16T11:00:16.577Z,34.00
2018-10-16T11:02:46.620Z,33.60
2018-10-16T11:05:15.102Z,33.10
2018-10-16T11:07:43.591Z,32.70
2018-10-16T11:10:13.445Z,33.20
2018-10-16T11:12:42.938Z,33.40
2018-10-16T11:15:11.568Z,33.20
2018-10-16T11:17:40.299Z,33.80
2018-10-16T11:20:10.627Z,33.20
2018-10-16T11:22:39.170Z,33.10
2018-10-16T11:25:08.936Z,33.30
2018-10-16T11:27:37.609Z,33.90
2018-10-16T11:30:11.428Z,34.00
2018-10-16T11:32:39.974Z,33.80
2018-10-16T11:35:09.806Z,33.70
2018-10-16T11:37:38.274Z,33.70
2018-10-16T11:40:06.996Z,33.30
2018-10-16T11:42:35.504Z,33.50
2018-10-16T11:45:04.141Z,33.20
2018-10-16T11:47:32.718Z,32.70
2018-10-16T11:50:01.227Z,32.90
2018-10-16T11:52:29.750Z,32.80
2018-10-16T11:54:58.218Z,32.90
2018-10-16T11:57:26.730Z,32.70
2018-10-16T11:59:55.244Z,32.40
2018-10-16T12:02:23.907Z,32.10
2018-10-16T12:04:52.534Z,32.10
2018-10-16T12:07:20.967Z,31.90
2018-10-16T12:09:49.412Z,31.90
2018-10-16T12:12:17.902Z,32.80
2018-10-16T12:14:46.390Z,32.40
2018-10-16T12:17:20.275Z,32.60
2018-10-16T12:19:55.265Z,32.30
2018-10-16T12:22:23.784Z,32.30
2018-10-16T12:24:52.324Z,32.50
2018-10-16T12:27:20.818Z,32.00
2018-10-16T12:29:49.249Z,31.30
2018-10-16T12:32:17.780Z,31.00
2018-10-16T12:34:46.214Z,30.50
2018-10-16T12:37:14.739Z,30.20
2018-10-16T12:39:43.178Z,29.40
2018-10-16T12:42:11.729Z,28.60
2018-10-16T12:44:40.144Z,27.80
2018-10-16T12:47:08.723Z,27.00
2018-10-16T12:49:37.119Z,26.50
2018-10-16T12:52:05.703Z,26.10
2018-10-16T12:54:34.185Z,25.80
2018-10-16T12:57:02.853Z,25.60
2018-10-16T12:59:31.213Z,25.70
2018-10-16T13:01:59.717Z,25.60
2018-10-16T13:04:28.130Z,25.80
2018-10-16T13:06:58.895Z,25.90
2018-10-16T13:09:27.377Z,25.60
2018-10-16T13:11:55.869Z,25.30
2018-10-16T13:14:24.351Z,25.20
2018-10-16T13:16:52.954Z,24.60
2018-10-16T13:19:21.297Z,24.20
2018-10-16T13:21:49.812Z,23.90
2018-10-16T13:24:18.248Z,23.60
2018-10-16T13:26:46.698Z,23.40
2018-10-16T13:29:15.240Z,23.10
2018-10-16T13:31:43.699Z,22.90
2018-10-16T13:34:12.227Z,22.70
2018-10-16T13:36:40.723Z,22.60
2018-10-16T13:39:09.367Z,22.50
2018-10-16T13:41:37.854Z,22.40
2018-10-16T13:44:06.335Z,22.30
2018-10-16T13:46:34.810Z,22.20
2018-10-16T13:49:03.273Z,22.10
2018-10-16T13:51:31.721Z,22.00
2018-10-16T13:54:00.189Z,22.10
2018-10-16T13:56:28.645Z,22.20
2018-10-16T13:58:57.136Z,22.30
2018-10-16T14:01:25.611Z,22.50
2018-10-16T14:03:54.125Z,22.60
2018-10-16T14:06:22.602Z,22.60
2018-10-16T14:08:51.020Z,22.50
2018-10-16T14:11:19.521Z,22.30
2018-10-16T14:13:47.984Z,22.10
2018-10-16T14:16:16.510Z,22.00
2018-10-16T14:18:44.951Z,21.80
2018-10-16T14:21:13.391Z,21.60
2018-10-16T14:23:41.837Z,21.50
2018-10-16T14:26:10.303Z,21.30
2018-10-16T14:28:38.746Z,21.30
2018-10-16T14:31:07.282Z,21.00
2018-10-16T14:33:35.749Z,20.90
2018-10-16T14:36:04.215Z,20.80
2018-10-16T14:38:32.704Z,20.70
2018-10-16T14:41:01.200Z,20.60
2018-10-16T14:43:29.793Z,20.50
2018-10-16T14:45:58.244Z,20.40
2018-10-16T14:48:26.698Z,20.40
2018-10-16T14:50:55.196Z,20.30
2018-10-16T14:53:23.820Z,20.20
2018-10-16T14:55:52.294Z,20.10
2018-10-16T14:58:20.761Z,20.00
2018-10-16T15:00:49.223Z,19.90
2018-10-16T15:03:17.766Z,19.80
2018-10-16T15:05:46.198Z,19.80
2018-10-16T15:08:14.726Z,19.70
2018-10-16T15:10:43.142Z,19.70
2018-10-16T15:13:11.598Z,19.60
2018-10-16T15:15:40.088Z,19.50
2018-10-16T15:18:08.522Z,19.50
2018-10-16T15:20:37.008Z,19.40
2018-10-16T15:23:05.454Z,19.30
2018-10-16T15:25:33.889Z,19.30
2018-10-16T15:28:02.373Z,19.10
2018-10-16T15:30:30.800Z,19.10
2018-10-16T15:32:59.298Z,19.00
2018-10-16T15:35:27.794Z,19.00
2018-10-16T15:37:56.293Z,18.90
2018-10-16T15:40:24.783Z,18.90
2018-10-16T15:42:53.262Z,18.70
2018-10-16T15:45:21.716Z,18.60
2018-10-16T15:47:50.183Z,18.50
2018-10-16T15:50:18.623Z,18.20
2018-10-16T15:52:48.451Z,18.00
2018-10-16T15:55:16.904Z,17.80
2018-10-16T15:57:45.364Z,17.60
2018-10-16T16:00:15.358Z,17.50
2018-10-16T16:02:43.861Z,17.30
2018-10-16T16:05:12.361Z,17.10
2018-10-16T16:07:41.016Z,17.00
2018-10-16T16:10:11.739Z,16.80
2018-10-16T16:12:40.256Z,16.60
2018-10-16T16:15:09.974Z,16.50
2018-10-16T16:17:38.461Z,16.30
2018-10-16T16:20:08.361Z,16.20
2018-10-16T16:22:36.953Z,16.00
2018-10-16T16:25:07.274Z,15.80
2018-10-16T16:27:35.964Z,15.70
2018-10-16T16:30:05.566Z,15.50
2018-10-16T16:32:33.996Z,15.40
2018-10-16T16:35:02.585Z,15.30
2018-10-16T16:37:31.004Z,15.30
2018-10-16T16:39:59.528Z,15.30
2018-10-16T16:42:28.135Z,15.20
2018-10-16T16:44:57.560Z,15.10
2018-10-16T16:47:26.123Z,14.90
2018-10-16T16:49:54.904Z,14.80
2018-10-16T16:52:23.465Z,14.60
2018-10-16T16:54:52.072Z,14.50
2018-10-16T16:57:20.730Z,14.30
2018-10-16T16:59:49.258Z,14.30
2018-10-16T17:02:17.858Z,14.30
2018-10-16T17:04:46.690Z,14.20
2018-10-16T17:07:15.534Z,14.00
2018-10-16T17:09:44.120Z,13.90
2018-10-16T17:12:12.718Z,13.70
2018-10-16T17:14:41.532Z,13.70
2018-10-16T17:17:10.313Z,13.60
2018-10-16T17:19:38.987Z,13.60
2018-10-16T17:22:08.204Z,13.60
2018-10-16T17:24:36.934Z,13.50
2018-10-16T17:27:05.749Z,13.30
2018-10-16T17:29:37.636Z,13.30
2018-10-16T17:32:06.491Z,13.30
2018-10-16T17:34:36.619Z,13.40
2018-10-16T17:37:05.896Z,13.40
2018-10-16T17:39:35.838Z,13.30
2018-10-16T17:42:04.645Z,13.10
2018-10-16T17:44:33.745Z,13.10
2018-10-16T17:47:03.828Z,13.00
2018-10-16T17:49:33.276Z,13.00
2018-10-16T17:52:02.685Z,13.00
2018-10-16T17:54:31.879Z,13.00
2018-10-16T17:57:00.924Z,13.00
2018-10-16T17:59:30.217Z,12.80
2018-10-16T18:02:00.313Z,12.80
2018-10-16T18:04:29.761Z,12.60
2018-10-16T18:06:59.017Z,12.60
2018-10-16T18:09:28.785Z,12.50
2018-10-16T18:11:58.093Z,12.50
2018-10-16T18:14:29.014Z,12.40
2018-10-16T18:16:58.786Z,12.30
2018-10-16T18:19:28.599Z,12.30
2018-10-16T18:21:58.025Z,12.10
2018-10-16T18:24:27.095Z,12.10
2018-10-16T18:26:56.644Z,12.20
2018-10-16T18:29:26.004Z,12.10
2018-10-16T18:31:55.413Z,12.00
2018-10-16T18:34:25.369Z,11.80
2018-10-16T18:36:57.195Z,11.90
2018-10-16T18:39:27.220Z,11.80
2018-10-16T18:41:57.047Z,11.80
2018-10-16T18:44:26.498Z,11.60
2018-10-16T18:47:00.848Z,11.40
2018-10-16T18:51:59.150Z,11.50
2018-10-16T18:54:28.898Z,11.50
2018-10-16T18:56:58.259Z,11.40
2018-10-16T18:59:28.202Z,11.20
2018-10-16T19:01:57.591Z,11.20
2018-10-16T19:04:28.188Z,11.20
2018-10-16T19:06:57.863Z,11.20
2018-10-16T19:09:28.037Z,11.10
2018-10-16T19:11:57.491Z,11.20
2018-10-16T19:14:26.971Z,11.30
2018-10-16T19:19:24.723Z,11.20
2018-10-16T19:21:54.754Z,10.70
2018-10-16T19:24:25.116Z,10.80
2018-10-16T19:26:55.270Z,10.80
2018-10-16T19:29:25.149Z,10.80
2018-10-16T19:31:54.553Z,10.90
2018-10-16T19:34:24.452Z,10.80
2018-10-16T19:39:22.776Z,10.80
2018-10-16T19:41:52.332Z,10.50
2018-10-16T19:44:22.851Z,10.40
2018-10-16T19:46:55.100Z,10.50
2018-10-16T19:49:24.768Z,10.60
2018-10-16T19:51:54.023Z,10.50
2018-10-16T19:54:23.510Z,10.50
2018-10-16T19:56:54.609Z,10.30
2018-10-16T19:59:26.366Z,10.40
2018-10-16T20:01:56.912Z,10.40
2018-10-16T20:04:26.182Z,10.30
2018-10-16T20:06:55.491Z,10.40
2018-10-16T20:09:24.910Z,10.40
2018-10-16T20:11:54.181Z,10.40
2018-10-16T20:14:24.033Z,10.40
2018-10-16T20:16:53.420Z,10.30
2018-10-16T20:19:22.712Z,10.40
2018-10-16T20:21:53.044Z,10.30
2018-10-16T20:24:22.397Z,10.30
2018-10-16T20:26:53.281Z,10.30
2018-10-16T20:29:22.280Z,10.10
2018-10-16T20:31:51.292Z,10.10
2018-10-16T20:34:20.538Z,9.80
2018-10-16T20:36:49.544Z,9.60
2018-10-16T20:39:18.459Z,9.60
2018-10-16T20:41:47.777Z,9.50
2018-10-16T20:44:17.233Z,9.60
2018-10-16T20:46:46.535Z,9.50
2018-10-16T20:49:16.480Z,9.50
2018-10-16T20:51:45.697Z,9.60
2018-10-16T20:54:14.925Z,9.60
2018-10-16T20:56:43.963Z,9.70
2018-10-16T20:59:13.531Z,9.60
2018-10-16T21:01:42.248Z,9.60
2018-10-16T21:04:12.669Z,9.60
2018-10-16T21:06:41.520Z,9.50
2018-10-16T21:09:09.918Z,9.40
2018-10-16T21:11:39.349Z,9.30
2018-10-16T21:14:07.854Z,9.30
2018-10-16T21:16:36.412Z,9.30
2018-10-16T21:19:05.008Z,9.30
2018-10-16T21:21:33.504Z,9.40
2018-10-16T21:24:02.195Z,9.40
2018-10-16T21:26:30.805Z,9.40
2018-10-16T21:28:59.820Z,9.40
2018-10-16T21:31:28.350Z,9.30
2018-10-16T21:33:56.897Z,9.30
2018-10-16T21:36:25.345Z,9.20
2018-10-16T21:38:53.965Z,9.20
2018-10-16T21:41:22.552Z,9.20
2018-10-16T21:43:51.105Z,9.10
2018-10-16T21:46:19.993Z,9.20
2018-10-16T21:48:48.451Z,9.10
2018-10-16T21:51:17.503Z,9.10
2018-10-16T21:53:46.056Z,9.00
2018-10-16T21:56:14.630Z,8.90
2018-10-16T21:58:43.671Z,9.00
2018-10-16T22:01:12.839Z,8.90
2018-10-16T22:03:41.352Z,8.90
2018-10-16T22:06:09.842Z,9.00
2018-10-16T22:08:38.977Z,8.90
2018-10-16T22:11:07.620Z,8.80
2018-10-16T22:13:36.041Z,8.70
2018-10-16T22:16:04.605Z,8.60
2018-10-16T22:18:33.233Z,8.70
2018-10-16T22:21:01.762Z,8.70
2018-10-16T22:23:30.214Z,8.80
2018-10-16T22:25:58.731Z,8.70
2018-10-16T22:28:27.341Z,8.60
2018-10-16T22:30:55.816Z,8.60
2018-10-16T22:33:24.202Z,8.50
2018-10-16T22:35:53.097Z,8.50
2018-10-16T22:38:21.618Z,8.20
2018-10-16T22:40:50.053Z,8.40
2018-10-16T22:43:18.489Z,8.30
2018-10-16T22:45:46.916Z,8.30
2018-10-16T22:48:15.333Z,8.30
2018-10-16T22:50:43.951Z,8.30
2018-10-16T22:53:12.432Z,8.20
2018-10-16T22:55:40.832Z,8.20
2018-10-16T22:58:09.310Z,8.10
2018-10-16T23:00:37.845Z,8.00
2018-10-16T23:03:06.595Z,8.00
2018-10-16T23:05:35.100Z,8.00
2018-10-16T23:08:03.722Z,8.10
2018-10-16T23:10:32.130Z,8.00
2018-10-16T23:13:04.879Z,8.00
2018-10-16T23:15:33.390Z,8.00
2018-10-16T23:18:02.192Z,7.90
2018-10-16T23:20:31.095Z,8.00
2018-10-16T23:22:59.566Z,8.00
2018-10-16T23:25:28.084Z,7.90
2018-10-16T23:27:56.673Z,7.90
2018-10-16T23:30:25.166Z,8.00
2018-10-16T23:32:54.020Z,8.10
2018-10-16T23:35:22.465Z,8.00
2018-10-16T23:37:50.922Z,8.00
2018-10-16T23:40:20.405Z,8.00
2018-10-16T23:42:49.726Z,7.90
2018-10-16T23:45:18.182Z,7.90
2018-10-16T23:47:46.628Z,7.80
2018-10-16T23:50:15.168Z,7.70
2018-10-16T23:52:43.580Z,7.60
2018-10-16T23:55:12.238Z,7.70
2018-10-16T23:57:40.590Z,7.70
